< < Back
Terminal Aerodrome Forecast


Current Version              Previous Versions:   1  2  3  4  5  6  7  8  9  

Terminal Aerodrome Forecast

717
FTUS42 KJAX 181500 AAA
TAFGNV
TAF AMD
KGNV 181514Z 1815/1912 08010KT P6SM OVC012
     FM181600 13011G20KT 2SM SHRA BR OVC007
     FM182300 20012G20KT 2SM SHRA BR OVC010=

Latest METAR

988
SAUS70 KWBC 190200 RRK
MTRGNV
METAR KGNV 190153Z 13003KT 5SM -RA BR FEW020 BKN044 OVC055 19/19 A2993
RMK AO2 RAB17E29B49 SLP131 P0000 T01940194


USA.gov is the U.S. government's official web portal to all federal, state and local government web resources and services.